Time;durP1;ratioP1;P1;durP2;ratioP2;P2;SDS_P1;SDS_P2;PMS_P1;PMS_P2;Temp;Humidity;BMP_temperature;BMP_pressure;BME280_temperature;BME280_humidity;BME280_pressure;Samples;Min_cycle;Max_cycle;Signal;HPM_P1;HPM_P2
2022/04/11 00:01:40;;;;;;;0.88;0.20;;;19.00;34.70;;;;;;5114677;27;20142;-68
2022/04/11 00:04:06;;;;;;;0.88;0.20;;;19.00;34.70;;;;;;5114577;27;20451;-68
2022/04/11 00:06:31;;;;;;;0.65;0.20;;;19.00;34.70;;;;;;5132735;27;20395;-68
2022/04/11 00:08:57;;;;;;;0.60;0.10;;;19.00;34.70;;;;;;5114635;27;20410;-68
2022/04/11 00:11:22;;;;;;;0.75;0.10;;;19.00;34.70;;;;;;5115023;27;20031;-67
2022/04/11 00:13:48;;;;;;;0.88;0.17;;;18.90;34.70;;;;;;5150203;27;20416;-68
2022/04/11 00:16:14;;;;;;;0.75;0.10;;;19.00;34.70;;;;;;5153811;27;20111;-68
2022/04/11 00:18:39;;;;;;;0.75;0.15;;;18.90;34.70;;;;;;5134122;27;20048;-67
2022/04/11 00:21:08;;;;;;;1.00;0.40;;;18.80;34.70;;;;;;5134755;27;20080;-70
2022/04/11 00:23:33;;;;;;;0.60;0.10;;;18.80;34.80;;;;;;5153120;27;20035;-68
2022/04/11 00:25:59;;;;;;;0.77;0.20;;;18.80;34.80;;;;;;5134349;27;20095;-67
2022/04/11 00:28:24;;;;;;;0.43;0.20;;;18.80;34.80;;;;;;5134863;27;20121;-68
2022/04/11 00:30:50;;;;;;;1.00;0.25;;;18.80;34.80;;;;;;5135208;27;20031;-68
2022/04/11 00:33:16;;;;;;;0.60;0.10;;;18.90;34.70;;;;;;5134910;27;20481;-68
2022/04/11 00:35:41;;;;;;;0.30;0.10;;;18.90;34.70;;;;;;5135068;27;20043;-70
2022/04/11 00:38:07;;;;;;;0.55;0.20;;;19.00;34.70;;;;;;5134152;27;20046;-68
2022/04/11 00:40:32;;;;;;;0.65;0.10;;;19.00;34.60;;;;;;5134077;27;20035;-68
2022/04/11 00:42:58;;;;;;;0.60;0.20;;;19.00;34.50;;;;;;5133578;27;20039;-67
2022/04/11 00:45:24;;;;;;;0.60;0.10;;;19.00;34.40;;;;;;5133975;27;20051;-69
2022/04/11 00:47:49;;;;;;;1.92;0.10;;;19.10;34.40;;;;;;5134599;27;20043;-68
2022/04/11 00:50:15;;;;;;;1.38;0.30;;;19.10;34.40;;;;;;5153511;27;20026;-68
2022/04/11 00:52:44;;;;;;;0.28;0.20;;;19.10;34.40;;;;;;5134990;27;20031;-68
2022/04/11 00:55:10;;;;;;;0.65;0.20;;;19.10;34.30;;;;;;5153261;27;20046;-68
2022/04/11 00:57:36;;;;;;;0.40;0.10;;;19.10;34.40;;;;;;5134384;27;20042;-68
2022/04/11 01:00:04;;;;;;;0.68;0.10;;;19.00;34.30;;;;;;5133974;27;20445;-68
2022/04/11 01:02:30;;;;;;;0.50;0.10;;;19.00;34.40;;;;;;5134096;27;20045;-68
2022/04/11 01:04:55;;;;;;;0.43;0.10;;;19.00;34.40;;;;;;5133574;27;20038;-68
2022/04/11 01:07:21;;;;;;;1.38;0.20;;;18.90;34.40;;;;;;5133957;27;20050;-68
2022/04/11 01:09:47;;;;;;;0.32;0.20;;;18.90;34.40;;;;;;5134609;27;20085;-68
2022/04/11 01:12:15;;;;;;;0.60;0.20;;;18.90;34.50;;;;;;5153054;27;20078;-67
2022/04/11 01:14:42;;;;;;;0.80;0.10;;;18.80;34.40;;;;;;5134550;27;20165;-68
2022/04/11 01:17:10;;;;;;;1.25;0.20;;;18.80;34.50;;;;;;5134505;27;20053;-67
2022/04/11 01:19:36;;;;;;;1.58;0.22;;;18.90;34.60;;;;;;5151949;27;20030;-67
2022/04/11 01:22:02;;;;;;;0.65;0.20;;;18.80;34.50;;;;;;5134518;27;20466;-68
2022/04/11 01:24:28;;;;;;;0.40;0.10;;;18.80;34.60;;;;;;5134122;27;20031;-68
2022/04/11 01:26:54;;;;;;;0.63;0.20;;;18.80;34.60;;;;;;5134665;27;20490;-68
2022/04/11 01:29:21;;;;;;;0.65;0.10;;;18.80;34.60;;;;;;5153520;27;20035;-68
2022/04/11 01:31:50;;;;;;;1.38;0.20;;;18.80;34.60;;;;;;5134392;27;20045;-68
2022/04/11 01:34:16;;;;;;;0.75;0.38;;;18.80;34.60;;;;;;5134893;27;20058;-69
2022/04/11 01:36:41;;;;;;;1.25;0.20;;;18.80;34.60;;;;;;5153587;27;20341;-68
2022/04/11 01:39:08;;;;;;;0.63;0.20;;;18.80;34.60;;;;;;5133763;27;20034;-68
2022/04/11 01:41:34;;;;;;;0.77;0.20;;;18.80;34.50;;;;;;5133522;27;20043;-68
2022/04/11 01:43:59;;;;;;;1.15;0.20;;;18.80;34.50;;;;;;5133641;27;20053;-68
2022/04/11 01:46:25;;;;;;;1.33;0.10;;;18.80;34.50;;;;;;5133418;27;20081;-68
2022/04/11 01:48:51;;;;;;;1.52;0.20;;;18.80;34.60;;;;;;5134291;27;20042;-69
2022/04/11 01:51:16;;;;;;;0.45;0.20;;;18.80;34.60;;;;;;5151971;27;20027;-69
2022/04/11 01:53:42;;;;;;;0.88;0.20;;;18.70;34.50;;;;;;5134274;27;20047;-68
2022/04/11 01:56:08;;;;;;;0.80;0.20;;;18.70;34.50;;;;;;5134120;27;20091;-69
2022/04/11 01:58:34;;;;;;;1.13;0.20;;;18.70;34.50;;;;;;5133528;27;20132;-69
2022/04/11 02:00:59;;;;;;;0.52;0.10;;;18.70;34.60;;;;;;5133401;27;20432;-70
2022/04/11 02:03:26;;;;;;;0.77;0.20;;;18.70;34.50;;;;;;5133306;27;20489;-69
2022/04/11 02:05:53;;;;;;;0.75;0.30;;;18.70;34.50;;;;;;5133431;27;20050;-68
2022/04/11 02:08:19;;;;;;;0.60;0.10;;;18.70;34.50;;;;;;5151494;27;20055;-68
2022/04/11 02:10:46;;;;;;;0.38;0.20;;;18.70;34.50;;;;;;5152375;27;20414;-68
2022/04/11 02:13:11;;;;;;;0.38;0.10;;;18.70;34.50;;;;;;5134234;27;20397;-69
2022/04/11 02:15:37;;;;;;;0.50;0.10;;;18.70;34.60;;;;;;5136310;27;20035;-68
2022/04/11 02:18:03;;;;;;;0.70;0.20;;;18.70;34.50;;;;;;5137004;27;20047;-68
2022/04/11 02:20:30;;;;;;;0.93;0.20;;;18.70;34.50;;;;;;5136899;27;20042;-69
2022/04/11 02:23:01;;;;;;;1.08;0.30;;;18.70;34.50;;;;;;5137476;27;20035;-68
2022/04/11 02:25:29;;;;;;;0.20;0.10;;;18.70;34.50;;;;;;5137078;27;20037;-68
2022/04/11 02:27:57;;;;;;;0.95;0.20;;;18.70;34.50;;;;;;5137029;27;20536;-71
2022/04/11 02:30:23;;;;;;;1.17;0.20;;;18.70;34.50;;;;;;5137474;27;20102;-68
2022/04/11 02:32:50;;;;;;;1.85;0.20;;;18.70;34.50;;;;;;5137539;27;20042;-69
2022/04/11 02:35:16;;;;;;;0.40;0.10;;;18.70;34.50;;;;;;5137536;27;20035;-68
2022/04/11 02:37:44;;;;;;;0.52;0.20;;;18.70;34.50;;;;;;5119784;27;20038;-68
2022/04/11 02:40:12;;;;;;;0.85;0.20;;;18.70;34.60;;;;;;5136308;27;20053;-69
2022/04/11 02:42:41;;;;;;;1.17;0.20;;;18.60;34.50;;;;;;5136829;27;20070;-69
2022/04/11 02:45:07;;;;;;;0.38;0.10;;;18.60;34.50;;;;;;5136407;27;20055;-69
2022/04/11 02:47:34;;;;;;;0.38;0.10;;;18.60;34.50;;;;;;5136684;27;20035;-68
2022/04/11 02:49:59;;;;;;;1.33;0.20;;;18.60;34.60;;;;;;5137212;27;20039;-69
2022/04/11 02:52:25;;;;;;;1.48;0.20;;;18.60;34.60;;;;;;5155494;27;20039;-69
2022/04/11 02:54:51;;;;;;;0.57;0.20;;;18.50;34.60;;;;;;5136905;27;20496;-69
2022/04/11 02:57:16;;;;;;;1.23;0.20;;;18.50;35.40;;;;;;5137047;27;20030;-69
2022/04/11 02:59:42;;;;;;;0.47;0.17;;;18.50;34.70;;;;;;5135911;27;20123;-68
2022/04/11 03:02:07;;;;;;;0.75;0.38;;;18.40;34.70;;;;;;5131860;27;20035;-69
2022/04/11 03:04:33;;;;;;;0.43;0.10;;;18.40;34.80;;;;;;5152097;27;20031;-68
2022/04/11 03:06:59;;;;;;;0.90;0.30;;;18.40;34.80;;;;;;5152923;27;20043;-68
2022/04/11 03:09:24;;;;;;;1.35;0.10;;;18.30;34.80;;;;;;5153681;27;20057;-69
2022/04/11 03:11:50;;;;;;;0.50;0.17;;;18.30;34.90;;;;;;5154125;27;20099;-69
2022/04/11 03:14:16;;;;;;;1.23;0.20;;;18.30;35.00;;;;;;5153824;27;20031;-69
2022/04/11 03:16:41;;;;;;;0.60;0.20;;;18.30;35.00;;;;;;5154220;27;20038;-68
2022/04/11 03:19:08;;;;;;;1.02;0.40;;;18.20;35.00;;;;;;5153268;27;20061;-69
2022/04/11 03:21:34;;;;;;;0.40;0.20;;;18.20;34.90;;;;;;5153115;27;20386;-68
2022/04/11 03:24:00;;;;;;;0.60;0.10;;;18.20;34.90;;;;;;5154554;27;20042;-68
2022/04/11 03:26:25;;;;;;;0.55;0.20;;;18.20;35.00;;;;;;5152975;27;20034;-68
2022/04/11 03:28:51;;;;;;;0.68;0.20;;;18.20;35.00;;;;;;5153190;27;20031;-68
2022/04/11 03:31:17;;;;;;;0.85;0.20;;;18.20;35.00;;;;;;5153329;27;20080;-69
2022/04/11 03:33:43;;;;;;;1.15;0.20;;;18.20;35.00;;;;;;5153459;27;20547;-69
2022/04/11 03:36:09;;;;;;;0.93;0.20;;;18.20;35.00;;;;;;5153558;27;20038;-68
2022/04/11 03:38:35;;;;;;;1.05;0.15;;;18.10;35.00;;;;;;5152836;27;20126;-68
2022/04/11 03:41:01;;;;;;;1.27;0.10;;;18.20;35.00;;;;;;5152352;27;20038;-69
2022/04/11 03:43:30;;;;;;;1.42;0.20;;;18.10;35.00;;;;;;5153110;27;20049;-70
2022/04/11 03:45:55;;;;;;;0.98;0.10;;;18.10;34.90;;;;;;5152600;27;20070;-70
2022/04/11 03:48:21;;;;;;;0.65;0.20;;;18.20;35.00;;;;;;5152788;27;20486;-68
2022/04/11 03:50:47;;;;;;;0.70;0.10;;;18.10;35.00;;;;;;5154520;27;20034;-69
2022/04/11 03:53:16;;;;;;;0.75;0.20;;;18.10;35.00;;;;;;5153077;27;20532;-69
2022/04/11 03:55:48;;;;;;;0.60;0.20;;;18.10;34.90;;;;;;5154246;27;20079;-69
2022/04/11 03:58:14;;;;;;;0.68;0.10;;;18.10;34.90;;;;;;5152792;27;20039;-68
2022/04/11 04:00:39;;;;;;;0.80;0.20;;;18.10;34.90;;;;;;5152166;27;20081;-68
2022/04/11 04:03:06;;;;;;;0.77;0.30;;;18.10;34.90;;;;;;5152211;27;20046;-69
2022/04/11 04:05:32;;;;;;;0.50;0.30;;;18.10;34.90;;;;;;5152188;27;20054;-69
2022/04/11 04:07:58;;;;;;;0.55;0.10;;;18.10;34.90;;;;;;5153549;27;20039;-69
2022/04/11 04:10:26;;;;;;;1.15;0.20;;;18.10;34.90;;;;;;5152802;27;20488;-68
2022/04/11 04:12:57;;;;;;;0.95;0.20;;;18.10;35.00;;;;;;5154338;27;20047;-68
2022/04/11 04:15:23;;;;;;;0.52;0.30;;;18.10;35.00;;;;;;5152673;27;20392;-70
2022/04/11 04:17:51;;;;;;;0.60;0.40;;;18.10;35.10;;;;;;5152772;27;20038;-69
2022/04/11 04:20:16;;;;;;;0.52;0.20;;;18.10;35.00;;;;;;5151927;27;20064;-68
2022/04/11 04:22:45;;;;;;;1.15;0.20;;;18.10;35.10;;;;;;5152101;27;20046;-68
2022/04/11 04:25:11;;;;;;;0.88;0.30;;;18.10;35.00;;;;;;5151707;27;20034;-69
2022/04/11 04:27:37;;;;;;;0.65;0.20;;;18.10;35.10;;;;;;5153103;27;20038;-68
2022/04/11 04:30:04;;;;;;;0.63;0.20;;;18.10;35.10;;;;;;5152071;27;20114;-69
2022/04/11 04:32:29;;;;;;;2.45;0.20;;;18.10;35.00;;;;;;5152323;27;20047;-68
2022/04/11 04:34:55;;;;;;;1.42;0.20;;;18.10;35.00;;;;;;5152421;27;20087;-68
2022/04/11 04:37:20;;;;;;;0.57;0.30;;;18.10;35.10;;;;;;5152010;27;20039;-68
2022/04/11 04:39:46;;;;;;;0.55;0.10;;;18.00;35.00;;;;;;5152605;27;20023;-69
2022/04/11 04:42:11;;;;;;;0.50;0.10;;;18.10;35.10;;;;;;5151458;27;20039;-68
2022/04/11 04:44:40;;;;;;;0.52;0.20;;;18.10;35.10;;;;;;5151765;27;20041;-69
2022/04/11 04:47:07;;;;;;;0.60;0.10;;;18.00;35.10;;;;;;5151396;27;20042;-68
2022/04/11 04:49:33;;;;;;;1.52;0.30;;;18.10;35.10;;;;;;5153153;27;20111;-69
2022/04/11 04:51:58;;;;;;;0.55;0.20;;;18.10;35.20;;;;;;5151962;27;20072;-70
2022/04/11 04:54:24;;;;;;;0.70;0.20;;;18.00;35.10;;;;;;5151911;27;20042;-70
2022/04/11 04:56:50;;;;;;;0.30;0.20;;;18.00;35.10;;;;;;5152389;27;20044;-68
2022/04/11 04:59:19;;;;;;;0.85;0.20;;;18.00;35.20;;;;;;5151676;27;20121;-68
2022/04/11 05:01:44;;;;;;;0.60;0.10;;;18.00;35.20;;;;;;5151070;27;20117;-69
2022/04/11 05:04:10;;;;;;;0.45;0.17;;;18.00;35.20;;;;;;5152423;27;20148;-69
2022/04/11 05:06:36;;;;;;;0.55;0.17;;;18.00;35.20;;;;;;5151108;27;20171;-68
2022/04/11 05:09:01;;;;;;;0.30;0.10;;;18.00;35.20;;;;;;5152428;27;20038;-69
2022/04/11 05:11:27;;;;;;;1.10;0.20;;;18.00;35.20;;;;;;5151885;27;20039;-69
2022/04/11 05:13:53;;;;;;;0.40;0.10;;;18.00;35.20;;;;;;5151748;27;20482;-68
2022/04/11 05:16:19;;;;;;;0.90;0.20;;;18.00;35.30;;;;;;5150891;27;20037;-70
2022/04/11 05:18:46;;;;;;;0.85;0.20;;;18.00;35.20;;;;;;5134004;27;20114;-75
2022/04/11 05:21:11;;;;;;;0.60;0.20;;;18.10;35.30;;;;;;5139206;27;20034;-69
2022/04/11 05:23:37;;;;;;;1.25;0.30;;;18.00;35.60;;;;;;5168219;27;20549;-68
2022/04/11 05:26:05;;;;;;;10.18;1.02;;;18.10;36.30;;;;;;5139193;27;20098;-73
2022/04/11 05:28:32;;;;;;;6.20;0.50;;;18.10;36.60;;;;;;5114915;27;20131;-75
2022/04/11 05:30:58;;;;;;;2.22;0.20;;;18.00;36.80;;;;;;5142274;27;20481;-75
2022/04/11 05:33:24;;;;;;;0.90;0.20;;;18.00;37.20;;;;;;5151655;27;20043;-78
2022/04/11 05:35:50;;;;;;;3.20;0.20;;;18.10;37.40;;;;;;5127721;27;20049;-77
2022/04/11 05:38:16;;;;;;;1.77;0.30;;;18.10;37.60;;;;;;5128837;27;20109;-78
2022/04/11 05:40:43;;;;;;;0.82;0.20;;;18.10;37.80;;;;;;5127223;27;20227;-76
2022/04/11 05:43:09;;;;;;;3.30;0.30;;;18.10;38.20;;;;;;5128455;27;20070;-73
2022/04/11 05:45:36;;;;;;;0.65;0.22;;;18.00;38.40;;;;;;5130266;27;20078;-75
2022/04/11 05:48:01;;;;;;;5.53;0.30;;;18.10;38.60;;;;;;5130683;27;20047;-73
2022/04/11 05:50:27;;;;;;;2.47;0.20;;;18.10;38.70;;;;;;5132644;27;20592;-76
2022/04/11 05:52:53;;;;;;;1.67;0.30;;;18.10;38.90;;;;;;5130860;27;20039;-75
2022/04/11 05:55:18;;;;;;;3.22;0.28;;;18.00;38.90;;;;;;5130483;27;20034;-74
2022/04/11 05:57:44;;;;;;;1.00;0.30;;;18.00;39.10;;;;;;5134739;27;20035;-73
2022/04/11 06:00:11;;;;;;;1.10;0.40;;;18.00;39.00;;;;;;5151324;27;20452;-73
2022/04/11 06:02:37;;;;;;;2.67;0.20;;;18.00;38.90;;;;;;5145268;27;20042;-73
2022/04/11 06:05:02;;;;;;;1.65;0.30;;;17.90;38.70;;;;;;5141676;27;20026;-72
2022/04/11 06:07:32;;;;;;;4.75;0.35;;;17.90;38.70;;;;;;5149441;27;20042;-72
2022/04/11 06:09:59;;;;;;;0.88;0.20;;;17.80;38.60;;;;;;5120778;27;20047;-72
2022/04/11 06:12:25;;;;;;;2.20;0.40;;;17.80;38.70;;;;;;5119350;27;20076;-72
2022/04/11 06:14:53;;;;;;;1.40;0.25;;;17.80;38.60;;;;;;5145190;27;20121;-72
2022/04/11 06:17:27;;;;;;;1.45;0.40;;;17.80;38.70;;;;;;5145483;27;20043;-69
2022/04/11 06:19:53;;;;;;;1.02;0.28;;;17.80;38.90;;;;;;5154887;27;20478;-73
2022/04/11 06:22:20;;;;;;;0.93;0.22;;;17.70;39.00;;;;;;5126788;27;20046;-74
2022/04/11 06:24:46;;;;;;;0.82;0.30;;;17.70;39.10;;;;;;5139839;27;20034;-69
2022/04/11 06:27:12;;;;;;;0.75;0.30;;;17.70;39.20;;;;;;5112678;27;20836;-73
2022/04/11 06:29:38;;;;;;;1.13;0.28;;;17.70;39.10;;;;;;5133896;27;20034;-73
2022/04/11 06:32:05;;;;;;;1.75;0.30;;;17.70;39.10;;;;;;5130810;27;20127;-73
2022/04/11 06:34:32;;;;;;;1.00;0.30;;;17.70;39.10;;;;;;5132368;27;20023;-76
2022/04/11 06:36:57;;;;;;;4.20;0.20;;;17.70;39.10;;;;;;5110333;27;20114;-76
2022/04/11 06:39:23;;;;;;;1.25;0.40;;;17.80;39.20;;;;;;5122951;27;20118;-75
2022/04/11 06:41:49;;;;;;;1.30;0.20;;;17.80;39.10;;;;;;5116769;27;20038;-75
2022/04/11 06:44:17;;;;;;;1.38;0.20;;;17.80;39.80;;;;;;5121282;27;20041;-73
2022/04/11 06:46:43;;;;;;;1.52;0.30;;;17.80;38.90;;;;;;5124117;27;20112;-73
2022/04/11 06:49:09;;;;;;;3.05;0.30;;;17.90;39.00;;;;;;5134559;27;20035;-71
2022/04/11 06:51:34;;;;;;;2.83;0.30;;;17.90;39.00;;;;;;5133983;27;20050;-70
2022/04/11 06:54:00;;;;;;;1.88;0.35;;;17.90;39.10;;;;;;5137364;27;20030;-70
2022/04/11 06:56:26;;;;;;;2.08;0.52;;;17.90;39.20;;;;;;5127023;27;20184;-72
2022/04/11 06:58:51;;;;;;;2.00;0.30;;;17.90;39.30;;;;;;5116073;27;20052;-73
2022/04/11 07:01:17;;;;;;;0.75;0.30;;;17.90;39.20;;;;;;5137063;27;20039;-73
2022/04/11 07:03:43;;;;;;;1.23;0.50;;;18.00;39.20;;;;;;5117244;27;20050;-72
2022/04/11 07:06:10;;;;;;;3.67;0.63;;;18.00;39.30;;;;;;5121810;27;20463;-71
2022/04/11 07:08:36;;;;;;;4.07;0.40;;;18.10;39.30;;;;;;5119783;27;20062;-72
2022/04/11 07:11:02;;;;;;;3.40;0.45;;;18.10;39.30;;;;;;5123448;27;20360;-72
2022/04/11 07:13:28;;;;;;;0.93;0.30;;;18.20;39.30;;;;;;5121167;27;20042;-74
2022/04/11 07:15:53;;;;;;;2.60;0.35;;;18.30;40.10;;;;;;5124663;27;20037;-75
2022/04/11 07:18:19;;;;;;;1.45;0.20;;;18.40;39.30;;;;;;5122025;27;20092;-78
2022/04/11 07:20:45;;;;;;;4.90;0.40;;;18.40;39.20;;;;;;5126043;27;20034;-73
2022/04/11 07:23:11;;;;;;;6.82;0.40;;;18.50;39.30;;;;;;5128973;27;20070;-72
2022/04/11 07:25:38;;;;;;;2.15;0.30;;;18.50;39.30;;;;;;5132947;27;20062;-71
2022/04/11 07:28:05;;;;;;;2.30;0.40;;;18.50;39.40;;;;;;5119721;27;20039;-72
2022/04/11 07:30:31;;;;;;;6.72;0.55;;;18.50;39.40;;;;;;5133774;27;20113;-74
2022/04/11 07:33:00;;;;;;;1.35;0.30;;;18.50;39.30;;;;;;5131007;27;20039;-74
2022/04/11 07:35:25;;;;;;;8.60;0.55;;;18.50;39.40;;;;;;5108083;27;20031;-68
2022/04/11 07:37:51;;;;;;;3.50;0.38;;;18.50;39.40;;;;;;5113549;27;20094;-73
2022/04/11 07:40:17;;;;;;;5.63;0.70;;;18.50;39.40;;;;;;5113921;27;20812;-70
2022/04/11 07:42:43;;;;;;;2.92;0.82;;;18.50;39.70;;;;;;5130715;27;20098;-70
2022/04/11 07:45:09;;;;;;;3.15;0.20;;;18.50;39.80;;;;;;5123108;27;20038;-71
2022/04/11 07:47:34;;;;;;;4.57;0.30;;;18.50;40.00;;;;;;5134861;27;20050;-70
2022/04/11 07:50:00;;;;;;;2.88;0.40;;;18.50;40.70;;;;;;5119468;27;21305;-71
2022/04/11 07:52:26;;;;;;;2.20;0.35;;;18.50;40.40;;;;;;5131324;27;20092;-73
2022/04/11 07:54:52;;;;;;;3.20;0.65;;;18.50;40.60;;;;;;5105677;27;20035;-75
2022/04/11 07:57:18;;;;;;;1.85;0.30;;;18.50;40.60;;;;;;5107438;27;20046;-72
2022/04/11 07:59:44;;;;;;;1.05;0.35;;;18.50;40.70;;;;;;5121762;27;20038;-72
2022/04/11 08:02:10;;;;;;;1.60;0.40;;;18.50;41.00;;;;;;5114066;27;20034;-72
2022/04/11 08:04:36;;;;;;;3.00;0.40;;;18.50;41.10;;;;;;5117201;27;20439;-72
2022/04/11 08:07:02;;;;;;;4.63;0.40;;;18.50;41.50;;;;;;5114556;27;20405;-70
2022/04/11 08:09:29;;;;;;;2.95;0.30;;;18.50;41.70;;;;;;5112375;27;20087;-71
2022/04/11 08:11:55;;;;;;;1.70;0.30;;;18.50;41.70;;;;;;5112660;27;20074;-69
2022/04/11 08:14:24;;;;;;;3.33;1.15;;;18.50;41.70;;;;;;5109953;27;20038;-71
2022/04/11 08:16:49;;;;;;;6.60;0.40;;;18.50;41.70;;;;;;5108988;27;20039;-72
2022/04/11 08:19:15;;;;;;;4.85;0.80;;;18.60;41.90;;;;;;5108773;27;20058;-71
2022/04/11 08:21:41;;;;;;;6.88;0.43;;;18.60;42.00;;;;;;5124551;27;20031;-70
2022/04/11 08:24:06;;;;;;;4.95;0.40;;;18.60;42.00;;;;;;5134393;27;20042;-71
2022/04/11 08:26:32;;;;;;;5.57;0.40;;;18.60;42.00;;;;;;5112195;27;20045;-70
2022/04/11 08:28:58;;;;;;;3.80;0.50;;;18.60;42.00;;;;;;5120874;27;20081;-71
2022/04/11 08:31:29;;;;;;;6.15;0.90;;;18.70;42.00;;;;;;5116986;27;20047;-69
2022/04/11 08:33:55;;;;;;;3.38;0.50;;;18.70;41.60;;;;;;5131809;27;20039;-74
2022/04/11 08:36:21;;;;;;;4.00;0.45;;;18.70;41.40;;;;;;5123962;27;20107;-73
2022/04/11 08:38:46;;;;;;;2.67;0.50;;;18.80;41.50;;;;;;5115460;27;20122;-72
2022/04/11 08:41:16;;;;;;;2.67;0.40;;;18.80;41.50;;;;;;5134882;27;20122;-74
2022/04/11 08:43:42;;;;;;;3.15;0.57;;;18.80;41.30;;;;;;5136305;27;20040;-74
2022/04/11 08:46:08;;;;;;;2.70;0.50;;;18.90;41.30;;;;;;5116021;27;20023;-73
2022/04/11 08:48:33;;;;;;;4.18;0.60;;;18.90;41.00;;;;;;5108802;27;20095;-75
2022/04/11 08:50:59;;;;;;;3.15;0.50;;;18.90;40.90;;;;;;5105147;27;20035;-67
2022/04/11 08:53:25;;;;;;;3.03;0.50;;;19.00;40.70;;;;;;5117836;27;20127;-72
2022/04/11 08:55:51;;;;;;;5.88;0.40;;;18.90;40.40;;;;;;5114379;27;20030;-68
2022/04/11 08:58:18;;;;;;;3.53;0.38;;;19.00;40.40;;;;;;5112644;27;20039;-72
2022/04/11 09:00:44;;;;;;;3.80;0.40;;;19.00;40.20;;;;;;5121247;27;20437;-71
2022/04/11 09:03:12;;;;;;;6.35;0.60;;;19.00;40.10;;;;;;5119385;27;20042;-72
2022/04/11 09:05:39;;;;;;;2.28;0.50;;;19.00;40.00;;;;;;5119386;27;20458;-69
2022/04/11 09:08:05;;;;;;;2.55;0.40;;;19.00;39.80;;;;;;5128637;27;20051;-72
2022/04/11 09:10:35;;;;;;;2.50;0.88;;;19.10;39.70;;;;;;5112334;27;20039;-70
2022/04/11 09:13:04;;;;;;;6.20;0.40;;;19.20;39.50;;;;;;5116558;27;20047;-67
2022/04/11 09:15:40;;;;;;;2.97;0.40;;;19.20;39.30;;;;;;5123166;27;20045;-66
2022/04/11 09:18:05;;;;;;;2.30;1.08;;;19.30;39.00;;;;;;5110979;27;20478;-70
2022/04/11 09:20:31;;;;;;;3.72;0.40;;;19.30;38.90;;;;;;5115282;27;20046;-68
2022/04/11 09:22:58;;;;;;;1.58;0.40;;;19.40;38.70;;;;;;5133440;27;20042;-66
2022/04/11 09:25:29;;;;;;;1.20;0.40;;;19.50;38.60;;;;;;5119167;27;20057;-69
2022/04/11 09:28:06;;;;;;;3.65;0.43;;;19.50;38.30;;;;;;5116446;27;20057;-70
2022/04/11 09:30:32;;;;;;;1.48;0.47;;;19.60;38.20;;;;;;5120716;27;20554;-70
2022/04/11 09:33:06;;;;;;;2.95;0.47;;;19.60;38.00;;;;;;5119940;27;20427;-70
2022/04/11 09:35:35;;;;;;;1.77;0.43;;;19.80;37.90;;;;;;5126472;27;20034;-69
2022/04/11 09:38:18;;;;;;;2.85;0.40;;;19.70;37.60;;;;;;5128532;27;20094;-70
2022/04/11 09:43:26;;;;;;;2.15;0.30;;;19.90;37.60;;;;;;5091617;27;20486;-70
2022/04/11 09:45:52;;;;;;;2.40;0.80;;;20.20;36.70;;;;;;5110890;28;20037;-69
2022/04/11 09:48:21;;;;;;;0.82;0.30;;;20.40;36.30;;;;;;5077603;28;20063;-70
2022/04/11 09:50:51;;;;;;;1.80;0.60;;;20.60;35.90;;;;;;5079683;28;20728;-71
2022/04/11 09:53:19;;;;;;;1.10;0.60;;;20.70;35.80;;;;;;5077304;28;20713;-73
2022/04/11 09:55:47;;;;;;;2.05;0.30;;;20.90;35.20;;;;;;5077758;28;20055;-71
2022/04/11 09:58:13;;;;;;;3.05;0.52;;;21.00;34.80;;;;;;5079410;28;20036;-72
2022/04/11 10:00:41;;;;;;;1.10;0.30;;;21.10;34.60;;;;;;5082077;28;20040;-71
2022/04/11 10:03:07;;;;;;;3.35;0.60;;;21.20;34.40;;;;;;5112508;28;20041;-68
2022/04/11 10:05:36;;;;;;;2.58;0.50;;;21.30;34.30;;;;;;5079556;28;20090;-69
2022/04/11 10:08:07;;;;;;;3.10;0.40;;;21.30;34.10;;;;;;5102326;27;20395;-68
2022/04/11 10:10:34;;;;;;;2.50;0.40;;;21.40;34.00;;;;;;5072141;28;20040;-70
2022/04/11 10:13:02;;;;;;;2.20;0.40;;;21.50;33.90;;;;;;5108011;28;20044;-66
2022/04/11 10:15:28;;;;;;;2.42;0.50;;;21.50;33.80;;;;;;5072201;28;20059;-67
2022/04/11 10:17:56;;;;;;;2.17;0.60;;;21.50;33.70;;;;;;5074517;28;20800;-71
2022/04/11 10:20:28;;;;;;;1.75;0.60;;;21.60;33.70;;;;;;5074114;28;20043;-71
2022/04/11 10:22:57;;;;;;;1.85;0.50;;;21.60;33.60;;;;;;5072696;28;20044;-72
2022/04/11 10:25:23;;;;;;;1.75;0.50;;;21.60;33.60;;;;;;5112762;28;20043;-70
2022/04/11 10:28:17;;;;;;;1.15;0.40;;;21.60;33.60;;;;;;5077599;28;20028;-70
2022/04/11 10:30:45;;;;;;;2.60;0.30;;;21.60;33.80;;;;;;5075664;28;20028;-71
2022/04/11 10:33:10;;;;;;;2.55;0.50;;;21.60;33.70;;;;;;5076887;28;20044;-70
2022/04/11 10:35:44;;;;;;;1.80;0.35;;;21.60;33.70;;;;;;5080863;28;20039;-69
2022/04/11 10:38:12;;;;;;;2.38;0.50;;;21.60;33.70;;;;;;5079617;28;20093;-71
2022/04/11 10:40:47;;;;;;;2.97;0.60;;;21.60;33.60;;;;;;5105887;28;20056;-70
2022/04/11 10:43:14;;;;;;;2.80;0.57;;;21.50;33.70;;;;;;5068245;28;20155;-71
2022/04/11 10:45:59;;;;;;;3.58;0.40;;;21.40;33.70;;;;;;5068625;28;20579;-70
2022/04/11 10:49:05;;;;;;;2.88;0.60;;;21.40;33.80;;;;;;5070930;28;20056;-71
2022/04/11 10:51:30;;;;;;;1.88;0.40;;;21.40;33.90;;;;;;5074225;28;20127;-70
2022/04/11 10:54:18;;;;;;;6.47;0.73;;;21.40;33.90;;;;;;5062284;28;20048;-70
2022/04/11 10:56:59;;;;;;;2.30;0.40;;;21.30;33.90;;;;;;5056651;28;20492;-71
2022/04/11 10:59:26;;;;;;;3.83;0.40;;;21.30;33.90;;;;;;5061987;28;20127;-72
2022/04/11 11:01:57;;;;;;;2.60;0.50;;;21.30;33.90;;;;;;5059454;28;20061;-70
2022/04/11 11:04:27;;;;;;;0.95;0.40;;;21.20;33.90;;;;;;5058039;28;20700;-68
2022/04/11 11:07:30;;;;;;;3.50;0.50;;;21.20;33.90;;;;;;5063505;28;20028;-71
2022/04/11 11:09:57;;;;;;;1.85;0.30;;;21.10;34.80;;;;;;5051935;28;20067;-71
2022/04/11 11:12:23;;;;;;;2.13;0.30;;;21.10;34.10;;;;;;5038234;28;20044;-71
2022/04/11 11:14:49;;;;;;;0.98;0.50;;;21.00;34.10;;;;;;5063250;28;20044;-71
2022/04/11 11:17:15;;;;;;;1.80;0.30;;;20.90;34.20;;;;;;5085185;28;20093;-67
2022/04/11 11:20:03;;;;;;;1.17;0.52;;;21.00;34.40;;;;;;5053963;28;20552;-70
2022/04/11 11:22:33;;;;;;;2.17;0.50;;;20.90;34.70;;;;;;5057893;28;20098;-69
2022/04/11 11:25:16;;;;;;;2.40;0.30;;;20.90;35.00;;;;;;5057237;28;20630;-69
2022/04/11 11:27:44;;;;;;;4.90;1.35;;;20.90;35.40;;;;;;5060376;28;20040;-73
2022/04/11 11:30:11;;;;;;;5.85;1.05;;;20.90;35.50;;;;;;5057929;28;20051;-71
2022/04/11 11:32:40;;;;;;;3.45;0.68;;;20.90;35.60;;;;;;5059373;28;20740;-71
2022/04/11 11:35:09;;;;;;;7.13;1.08;;;20.80;35.60;;;;;;5059522;28;20036;-72
2022/04/11 11:37:35;;;;;;;3.72;0.60;;;20.80;35.60;;;;;;5052832;28;20040;-71
2022/04/11 11:40:04;;;;;;;6.18;0.85;;;20.80;35.70;;;;;;5048541;28;20047;-74
2022/04/11 11:42:38;;;;;;;4.85;0.40;;;20.80;35.80;;;;;;5061848;28;20768;-72
2022/04/11 11:45:06;;;;;;;5.95;0.65;;;20.80;35.90;;;;;;5056174;28;20123;-69
2022/04/11 11:47:32;;;;;;;7.75;1.00;;;20.70;35.90;;;;;;5057956;28;20044;-70
2022/04/11 11:50:06;;;;;;;4.45;1.00;;;20.70;36.00;;;;;;5057216;28;20049;-68
2022/04/11 11:52:32;;;;;;;4.20;0.93;;;20.60;36.10;;;;;;5057662;28;20040;-67
2022/04/11 11:54:58;;;;;;;3.50;0.70;;;20.60;36.10;;;;;;5058964;28;20427;-70
2022/04/11 11:57:26;;;;;;;1.30;0.55;;;20.60;36.20;;;;;;5054494;28;20497;-69
2022/04/11 12:05:25;;;;;;;5.80;0.63;;;20.50;37.10;;;;;;5099259;28;20044;-68
2022/04/11 12:08:13;;;;;;;3.45;0.90;;;20.60;36.50;;;;;;5098713;28;20190;-68
2022/04/11 12:13:22;;;;;;;2.92;0.70;;;20.60;36.50;;;;;;5071741;27;21256;-69
2022/04/11 12:15:48;;;;;;;4.28;0.50;;;20.70;36.50;;;;;;5063569;28;20041;-72
2022/04/11 12:18:15;;;;;;;5.38;0.90;;;20.70;36.50;;;;;;5049603;28;20052;-69
2022/04/11 12:20:43;;;;;;;2.60;0.77;;;20.80;36.70;;;;;;5087161;28;20506;-67
2022/04/11 12:23:11;;;;;;;6.85;0.57;;;20.80;36.70;;;;;;5053606;28;20488;-67
2022/04/11 12:28:26;;;;;;;3.85;0.40;;;20.90;36.80;;;;;;5032971;28;20482;-67
2022/04/11 12:31:12;;;;;;;2.90;0.30;;;21.00;36.60;;;;;;5044344;28;20139;-66
2022/04/11 12:33:41;;;;;;;2.03;0.30;;;21.10;36.70;;;;;;5037365;28;20092;-64
2022/04/11 12:49:54;;;;;;;6.18;0.65;;;21.30;36.50;;;;;;5092861;27;20245;-68
2022/04/11 12:52:25;;;;;;;7.32;0.68;;;21.30;36.40;;;;;;5072597;28;20040;-67
2022/04/11 12:54:59;;;;;;;3.03;0.60;;;21.30;36.40;;;;;;5099312;28;20040;-66
2022/04/11 12:57:27;;;;;;;3.83;0.82;;;21.30;36.40;;;;;;5061060;28;20090;-68
2022/04/11 12:59:54;;;;;;;4.03;0.50;;;21.30;36.30;;;;;;5069121;28;20132;-69
2022/04/11 13:02:25;;;;;;;2.85;1.13;;;21.30;36.40;;;;;;5069359;28;20064;-67
2022/04/11 13:04:54;;;;;;;5.40;1.30;;;21.30;36.30;;;;;;5092469;28;20435;-66
2022/04/11 13:07:23;;;;;;;3.22;1.20;;;21.30;36.20;;;;;;5065193;28;20051;-68
2022/04/11 13:09:49;;;;;;;4.50;1.20;;;21.40;36.10;;;;;;5082375;28;20818;-67
2022/04/11 13:12:18;;;;;;;3.20;0.68;;;21.40;36.10;;;;;;5068928;28;20119;-67
2022/04/11 13:14:45;;;;;;;2.80;0.77;;;21.40;36.00;;;;;;5073976;28;20027;-68
2022/04/11 13:19:59;;;;;;;5.75;1.17;;;21.40;36.00;;;;;;5082872;28;20064;-69